Time;durP1;ratioP1;P1;durP2;ratioP2;P2;SDS_P1;SDS_P2;PMS_P1;PMS_P2;Temp;Humidity;BMP_temperature;BMP_pressure;BME280_temperature;BME280_humidity;BME280_pressure;Samples;Min_cycle;Max_cycle;Signal;HPM_P1;HPM_P2
2023/05/07 00:00:52;;;;;;;;;;;14.50;99.90;;;;;;5093888;28;19954;-39
2023/05/07 00:03:18;;;;;;;;;;;14.50;99.90;;;;;;5086200;28;20310;-39
2023/05/07 00:05:46;;;;;;;;;;;14.50;99.90;;;;;;5098981;28;19949;-39
2023/05/07 00:08:12;;;;;;;;;;;14.50;99.90;;;;;;5080983;28;19948;-38
2023/05/07 00:10:39;;;;;;;;;;;14.50;99.90;;;;;;5093029;28;20331;-38
2023/05/07 00:13:06;;;;;;;;;;;14.50;99.90;;;;;;5086825;28;19940;-38
2023/05/07 00:15:34;;;;;;;;;;;14.50;99.90;;;;;;5086645;28;19936;-37
2023/05/07 00:18:00;;;;;;;;;;;14.50;99.90;;;;;;5109151;28;20013;-37
2023/05/07 00:20:27;;;;;;;;;;;14.60;99.90;;;;;;5086524;28;19990;-38
2023/05/07 00:22:54;;;;;;;;;;;14.50;99.90;;;;;;5092071;28;20425;-38
2023/05/07 00:25:20;;;;;;;;;;;14.50;99.90;;;;;;5093288;28;20281;-38
2023/05/07 00:27:47;;;;;;;;;;;14.50;99.90;;;;;;5081659;28;20020;-38
2023/05/07 00:30:14;;;;;;;;;;;14.40;99.90;;;;;;5091752;28;19945;-34
2023/05/07 00:32:42;;;;;;;;;;;14.40;99.90;;;;;;5094214;28;19994;-39
2023/05/07 00:35:09;;;;;;;;;;;14.40;99.90;;;;;;5078323;28;19943;-38
2023/05/07 00:37:36;;;;;;;;;;;14.30;99.90;;;;;;5073583;28;19946;-39
2023/05/07 00:40:04;;;;;;;;;;;14.30;99.90;;;;;;5091269;28;19937;-38
2023/05/07 00:42:32;;;;;;;;;;;14.30;99.90;;;;;;5075269;28;20282;-39
2023/05/07 00:44:58;;;;;;;;;;;14.30;99.90;;;;;;5092737;28;19983;-38
2023/05/07 00:47:25;;;;;;;;;;;14.30;99.90;;;;;;5072841;28;20381;-38
2023/05/07 00:49:53;;;;;;;;;;;14.30;99.90;;;;;;5091282;28;19941;-39
2023/05/07 00:52:20;;;;;;;;;;;14.30;99.90;;;;;;5076299;28;19942;-39
2023/05/07 00:54:47;;;;;;;;;;;14.20;99.90;;;;;;5091304;28;19980;-38
2023/05/07 00:57:14;;;;;;;;;;;14.20;99.90;;;;;;5092351;28;20386;-39
2023/05/07 00:59:40;;;;;;;;;;;14.20;99.90;;;;;;5091331;28;20007;-39
2023/05/07 01:02:07;;;;;;;;;;;14.20;99.90;;;;;;5073985;28;19953;-39
2023/05/07 01:04:34;;;;;;;;;;;14.10;99.90;;;;;;5104704;28;20030;-39
2023/05/07 01:07:02;;;;;;;;;;;14.10;99.90;;;;;;5107141;28;19937;-38
2023/05/07 01:09:28;;;;;;;;;;;14.10;99.90;;;;;;5095908;28;19985;-39
2023/05/07 01:11:55;;;;;;;;;;;14.10;99.90;;;;;;5079066;28;19938;-39
2023/05/07 01:14:22;;;;;;;;;;;14.00;99.90;;;;;;5098195;28;19943;-39
2023/05/07 01:16:50;;;;;;;;;;;14.00;99.90;;;;;;5072384;28;19963;-39
2023/05/07 01:19:17;;;;;;;;;;;14.00;99.90;;;;;;5041131;28;19990;-39
2023/05/07 01:21:44;;;;;;;;;;;13.90;99.90;;;;;;5032311;28;19967;-39
2023/05/07 01:24:12;;;;;;;;;;;13.90;99.90;;;;;;5060030;28;19946;-39
2023/05/07 01:26:39;;;;;;;;;;;13.90;99.90;;;;;;5050074;28;19942;-39
2023/05/07 01:29:06;;;;;;;;;;;13.80;99.90;;;;;;5050721;28;19961;-39
2023/05/07 01:31:33;;;;;;;;;;;13.80;99.90;;;;;;5046064;28;19939;-39
2023/05/07 01:33:59;;;;;;;;;;;13.70;99.90;;;;;;5051471;28;20404;-39
2023/05/07 01:36:27;;;;;;;;;;;13.60;99.90;;;;;;5065737;28;20383;-38
2023/05/07 01:38:53;;;;;;;;;;;13.60;99.90;;;;;;5061773;28;19942;-39
2023/05/07 01:41:21;;;;;;;;;;;13.50;99.90;;;;;;5057981;28;19964;-38
2023/05/07 01:43:48;;;;;;;;;;;13.50;99.90;;;;;;5053753;28;19938;-39
2023/05/07 01:46:15;;;;;;;;;;;13.50;99.90;;;;;;5033101;28;19942;-39
2023/05/07 01:48:41;;;;;;;;;;;13.40;99.90;;;;;;5045007;28;20001;-40
2023/05/07 01:51:08;;;;;;;;;;;13.30;99.90;;;;;;5055068;28;19996;-39
2023/05/07 01:53:36;;;;;;;;;;;13.30;99.90;;;;;;5040990;28;19948;-39
2023/05/07 01:56:03;;;;;;;;;;;13.20;99.90;;;;;;5049739;28;19939;-38
2023/05/07 01:58:31;;;;;;;;;;;13.20;99.90;;;;;;5058678;28;20074;-39
2023/05/07 02:00:57;;;;;;;;;;;13.20;99.90;;;;;;5055380;28;20357;-39
2023/05/07 02:03:24;;;;;;;;;;;13.10;99.90;;;;;;5053087;28;20323;-39
2023/05/07 02:05:51;;;;;;;;;;;13.10;99.90;;;;;;5047854;28;19944;-40
2023/05/07 02:08:17;;;;;;;;;;;13.00;99.90;;;;;;5052370;28;20388;-39
2023/05/07 02:10:44;;;;;;;;;;;13.10;99.90;;;;;;5070586;28;20012;-39
2023/05/07 02:13:11;;;;;;;;;;;13.00;99.90;;;;;;5055599;28;19947;-39
2023/05/07 02:15:39;;;;;;;;;;;12.90;99.90;;;;;;5056973;28;20011;-39
2023/05/07 02:18:06;;;;;;;;;;;12.90;99.90;;;;;;5077443;28;20047;-39
2023/05/07 02:20:32;;;;;;;;;;;12.90;99.90;;;;;;5085967;28;20256;-39
2023/05/07 02:23:00;;;;;;;;;;;12.90;99.90;;;;;;5073696;28;19953;-38
2023/05/07 02:25:26;;;;;;;;;;;12.80;99.90;;;;;;5059343;28;19992;-39
2023/05/07 02:27:53;;;;;;;;;;;12.80;99.90;;;;;;5071033;28;19937;-38
2023/05/07 02:30:21;;;;;;;;;;;12.90;99.90;;;;;;5065215;28;20371;-38
2023/05/07 02:32:49;;;;;;;;;;;12.80;99.90;;;;;;5062069;28;19983;-38
2023/05/07 02:35:15;;;;;;;;;;;12.80;99.90;;;;;;5078435;28;19996;-38
2023/05/07 02:37:42;;;;;;;;;;;12.80;99.90;;;;;;5057721;28;20032;-38
2023/05/07 02:40:09;;;;;;;;;;;12.70;99.90;;;;;;5055591;28;20417;-38
2023/05/07 02:42:36;;;;;;;;;;;12.70;99.90;;;;;;5064149;28;19960;-38
2023/05/07 02:45:02;;;;;;;;;;;12.70;99.90;;;;;;5074830;28;19999;-38
2023/05/07 02:47:29;;;;;;;;;;;12.70;99.90;;;;;;5073393;28;19940;-38
2023/05/07 02:49:57;;;;;;;;;;;12.70;99.90;;;;;;5073287;28;19938;-38
2023/05/07 02:52:24;;;;;;;;;;;12.70;99.90;;;;;;5074927;28;20351;-39
2023/05/07 02:54:50;;;;;;;;;;;12.70;99.90;;;;;;5072360;28;20016;-38
2023/05/07 02:57:17;;;;;;;;;;;12.60;99.90;;;;;;5072255;28;19941;-38
2023/05/07 02:59:44;;;;;;;;;;;12.60;99.90;;;;;;5072465;28;20412;-38
2023/05/07 03:02:10;;;;;;;;;;;12.60;99.90;;;;;;5073911;28;20007;-38
2023/05/07 03:04:37;;;;;;;;;;;12.50;99.90;;;;;;5087347;28;19939;-38
2023/05/07 03:07:05;;;;;;;;;;;12.60;99.90;;;;;;5084623;28;20090;-38
2023/05/07 03:09:32;;;;;;;;;;;12.50;99.90;;;;;;5078185;28;20057;-38
2023/05/07 03:11:58;;;;;;;;;;;12.50;99.90;;;;;;5072917;28;19994;-38
2023/05/07 03:14:25;;;;;;;;;;;12.50;99.90;;;;;;5084462;28;19992;-37
2023/05/07 03:16:52;;;;;;;;;;;12.50;99.90;;;;;;5082289;28;19970;-38
2023/05/07 03:19:18;;;;;;;;;;;12.40;99.90;;;;;;5096155;28;19941;-38
2023/05/07 03:21:45;;;;;;;;;;;12.40;99.90;;;;;;5092824;28;19986;-38
2023/05/07 03:24:13;;;;;;;;;;;12.40;99.90;;;;;;5075106;28;19996;-39
2023/05/07 03:26:40;;;;;;;;;;;12.40;99.90;;;;;;5093115;28;19938;-39
2023/05/07 03:29:06;;;;;;;;;;;12.40;99.90;;;;;;5074977;28;19939;-39
2023/05/07 03:31:33;;;;;;;;;;;12.30;99.90;;;;;;5076346;28;19981;-38
2023/05/07 03:34:00;;;;;;;;;;;12.30;99.90;;;;;;5092931;28;19939;-39
2023/05/07 03:36:27;;;;;;;;;;;12.30;99.90;;;;;;5093360;28;20406;-39
2023/05/07 03:38:54;;;;;;;;;;;12.20;99.90;;;;;;5084983;28;19938;-39
2023/05/07 03:41:22;;;;;;;;;;;12.30;99.90;;;;;;5093811;28;20573;-39
2023/05/07 03:43:48;;;;;;;;;;;12.20;99.90;;;;;;5114336;28;19961;-38
2023/05/07 03:46:15;;;;;;;;;;;12.20;99.90;;;;;;5093972;28;19952;-39
2023/05/07 03:48:42;;;;;;;;;;;12.20;99.90;;;;;;5094929;28;19938;-38
2023/05/07 03:51:08;;;;;;;;;;;12.20;99.90;;;;;;5057936;28;19986;-38
2023/05/07 03:53:35;;;;;;;;;;;12.20;99.90;;;;;;5070221;28;19947;-37
2023/05/07 03:56:02;;;;;;;;;;;12.20;99.90;;;;;;5092718;28;20025;-38
2023/05/07 03:58:30;;;;;;;;;;;12.20;99.90;;;;;;5073561;28;19940;-38
2023/05/07 04:00:56;;;;;;;;;;;12.10;99.90;;;;;;5083003;28;19966;-38
2023/05/07 04:03:23;;;;;;;;;;;12.10;99.90;;;;;;5098904;28;20010;-38
2023/05/07 04:05:50;;;;;;;;;;;12.20;99.90;;;;;;5070691;28;19993;-38
2023/05/07 04:08:16;;;;;;;;;;;12.10;99.90;;;;;;5067451;28;19924;-38
2023/05/07 04:10:43;;;;;;;;;;;12.10;99.90;;;;;;5091364;28;20384;-37
2023/05/07 04:13:09;;;;;;;;;;;12.10;99.90;;;;;;5070159;28;20013;-38
2023/05/07 04:15:37;;;;;;;;;;;12.10;99.90;;;;;;5095923;28;19982;-38
2023/05/07 04:18:04;;;;;;;;;;;12.10;99.90;;;;;;5074334;28;20449;-38
2023/05/07 04:20:31;;;;;;;;;;;12.10;99.90;;;;;;5072897;28;19939;-38
2023/05/07 04:22:57;;;;;;;;;;;12.00;99.90;;;;;;5062118;28;19956;-38
2023/05/07 04:25:26;;;;;;;;;;;12.00;99.90;;;;;;5092895;28;20013;-38
2023/05/07 04:27:52;;;;;;;;;;;12.00;99.90;;;;;;5091300;28;20435;-38
2023/05/07 04:30:19;;;;;;;;;;;12.00;99.90;;;;;;5111650;28;19940;-38
2023/05/07 04:32:47;;;;;;;;;;;12.00;99.90;;;;;;5082605;28;20005;-37
2023/05/07 04:35:14;;;;;;;;;;;12.00;99.90;;;;;;5090846;28;19949;-37
2023/05/07 04:37:41;;;;;;;;;;;12.00;99.90;;;;;;5100293;28;20068;-38
2023/05/07 04:40:08;;;;;;;;;;;12.00;99.90;;;;;;5093705;28;20364;-38
2023/05/07 04:42:35;;;;;;;;;;;12.10;99.90;;;;;;5110046;28;20061;-38
2023/05/07 04:45:02;;;;;;;;;;;12.00;99.90;;;;;;5092583;28;19948;-38
2023/05/07 04:47:28;;;;;;;;;;;12.00;99.90;;;;;;5091657;28;20397;-38
2023/05/07 04:49:56;;;;;;;;;;;12.00;99.90;;;;;;5073264;28;20261;-38
2023/05/07 04:52:23;;;;;;;;;;;12.10;99.90;;;;;;5092501;28;19982;-38
2023/05/07 04:54:49;;;;;;;;;;;12.00;99.90;;;;;;5091364;28;19987;-38
2023/05/07 04:57:16;;;;;;;;;;;12.10;99.90;;;;;;5075368;28;19970;-38
2023/05/07 04:59:43;;;;;;;;;;;12.00;99.90;;;;;;5073469;28;19940;-38
2023/05/07 05:02:11;;;;;;;;;;;12.00;99.90;;;;;;5081901;28;19998;-39
2023/05/07 05:04:38;;;;;;;;;;;12.10;99.90;;;;;;5096795;28;19995;-37
2023/05/07 05:07:06;;;;;;;;;;;12.10;99.90;;;;;;5101006;28;19948;-38
2023/05/07 05:09:32;;;;;;;;;;;12.10;99.90;;;;;;5094585;28;20391;-38
2023/05/07 05:11:59;;;;;;;;;;;12.10;99.90;;;;;;5106979;28;19938;-39
2023/05/07 05:14:26;;;;;;;;;;;12.00;99.90;;;;;;5097638;28;20370;-38
2023/05/07 05:16:52;;;;;;;;;;;12.00;99.90;;;;;;5097043;28;19990;-39
2023/05/07 05:19:19;;;;;;;;;;;12.00;99.90;;;;;;5099178;28;20357;-38
2023/05/07 05:21:46;;;;;;;;;;;12.00;99.90;;;;;;5112812;28;19940;-38
2023/05/07 05:24:15;;;;;;;;;;;12.10;99.90;;;;;;5091359;28;20002;-39
2023/05/07 05:26:41;;;;;;;;;;;12.10;99.90;;;;;;5086530;28;19939;-38
2023/05/07 05:29:08;;;;;;;;;;;12.10;99.90;;;;;;5078793;28;19952;-38
2023/05/07 05:31:35;;;;;;;;;;;12.10;99.90;;;;;;5098543;28;20005;-38
2023/05/07 05:34:01;;;;;;;;;;;12.10;99.90;;;;;;5077684;28;20021;-38
2023/05/07 05:36:28;;;;;;;;;;;12.10;99.90;;;;;;5092915;28;19942;-37
2023/05/07 05:38:55;;;;;;;;;;;12.10;99.90;;;;;;5089451;28;20418;-38
2023/05/07 05:41:23;;;;;;;;;;;12.10;99.90;;;;;;5078228;28;19936;-38
2023/05/07 05:43:49;;;;;;;;;;;12.10;99.90;;;;;;5093640;28;19999;-37
2023/05/07 05:46:16;;;;;;;;;;;12.20;99.90;;;;;;5099318;28;19941;-38
2023/05/07 05:48:43;;;;;;;;;;;12.20;99.90;;;;;;5077108;28;20405;-38
2023/05/07 05:51:09;;;;;;;;;;;12.20;99.90;;;;;;5090461;28;19940;-39
2023/05/07 05:53:36;;;;;;;;;;;12.30;99.90;;;;;;5099078;28;19936;-39
2023/05/07 05:56:03;;;;;;;;;;;12.30;99.90;;;;;;5096132;28;19944;-38
2023/05/07 05:58:31;;;;;;;;;;;12.30;99.90;;;;;;5079620;28;19998;-38
2023/05/07 06:00:58;;;;;;;;;;;12.40;99.90;;;;;;5082538;28;19938;-38
2023/05/07 06:03:25;;;;;;;;;;;12.40;99.90;;;;;;5066657;28;20972;-38
2023/05/07 06:05:51;;;;;;;;;;;12.40;99.90;;;;;;5083707;28;19986;-38
2023/05/07 06:08:18;;;;;;;;;;;12.40;99.90;;;;;;5091579;28;19938;-38
2023/05/07 06:10:45;;;;;;;;;;;12.40;99.90;;;;;;5085248;28;19976;-38
2023/05/07 06:13:11;;;;;;;;;;;12.40;99.90;;;;;;5089554;28;19946;-38
2023/05/07 06:15:39;;;;;;;;;;;12.40;99.90;;;;;;5082642;28;19998;-38
2023/05/07 06:18:06;;;;;;;;;;;12.50;99.90;;;;;;5085716;28;20031;-38
2023/05/07 06:20:33;;;;;;;;;;;12.50;99.90;;;;;;5092505;28;20333;-39
2023/05/07 06:22:59;;;;;;;;;;;12.50;99.90;;;;;;5089481;28;20000;-37
2023/05/07 06:25:26;;;;;;;;;;;12.50;99.90;;;;;;5085437;28;20027;-38
2023/05/07 06:27:52;;;;;;;;;;;12.50;99.90;;;;;;5092599;28;19937;-40
2023/05/07 06:30:19;;;;;;;;;;;12.50;99.90;;;;;;5096674;28;19938;-39
2023/05/07 06:32:47;;;;;;;;;;;12.50;99.90;;;;;;5094927;28;19980;-38
2023/05/07 06:35:14;;;;;;;;;;;12.50;99.90;;;;;;5079104;28;19943;-39
2023/05/07 06:37:42;;;;;;;;;;;12.50;99.90;;;;;;5080873;28;19946;-39
2023/05/07 06:40:09;;;;;;;;;;;12.50;99.90;;;;;;5084239;28;20031;-38
2023/05/07 06:42:36;;;;;;;;;;;12.60;99.90;;;;;;5088559;28;20307;-39
2023/05/07 06:45:03;;;;;;;;;;;12.50;99.90;;;;;;5067575;28;19981;-39
2023/05/07 06:47:30;;;;;;;;;;;12.70;99.90;;;;;;5087368;28;19938;-39
2023/05/07 06:49:58;;;;;;;;;;;12.80;99.90;;;;;;5100073;28;19946;-39
2023/05/07 06:52:24;;;;;;;;;;;12.80;99.90;;;;;;5096893;28;19938;-39
2023/05/07 06:54:51;;;;;;;;;;;12.80;99.90;;;;;;5075664;28;19947;-38
2023/05/07 06:57:18;;;;;;;;;;;12.90;99.90;;;;;;5107549;28;19945;-40
2023/05/07 06:59:44;;;;;;;;;;;12.90;99.90;;;;;;5081238;28;19942;-38
2023/05/07 07:02:11;;;;;;;;;;;12.90;99.90;;;;;;5071424;28;20028;-38
2023/05/07 07:04:38;;;;;;;;;;;13.00;99.90;;;;;;5074774;28;19952;-39
2023/05/07 07:07:06;;;;;;;;;;;13.10;99.90;;;;;;5094342;28;19944;-39
2023/05/07 07:09:32;;;;;;;;;;;13.20;99.90;;;;;;5074920;28;19941;-39
2023/05/07 07:11:59;;;;;;;;;;;13.20;99.90;;;;;;5099558;28;19977;-39
2023/05/07 07:14:26;;;;;;;;;;;13.20;99.90;;;;;;5084022;28;20400;-40
2023/05/07 07:16:53;;;;;;;;;;;13.20;99.90;;;;;;5087309;28;19961;-40
2023/05/07 07:19:20;;;;;;;;;;;13.10;99.90;;;;;;5075741;28;20304;-40
2023/05/07 07:21:46;;;;;;;;;;;13.20;99.90;;;;;;5064196;28;19942;-40
2023/05/07 07:24:18;;;;;;;;;;;13.20;99.90;;;;;;5057795;28;20000;-40
2023/05/07 07:26:45;;;;;;;;;;;13.30;99.90;;;;;;5055616;28;19940;-38
2023/05/07 07:29:12;;;;;;;;;;;13.30;99.90;;;;;;5079139;28;19936;-38
2023/05/07 07:31:38;;;;;;;;;;;13.30;99.90;;;;;;5069899;28;20032;-38
2023/05/07 07:34:05;;;;;;;;;;;13.30;99.90;;;;;;5082382;28;20015;-38
2023/05/07 07:36:32;;;;;;;;;;;13.30;99.90;;;;;;5079782;28;21639;-39
2023/05/07 07:38:58;;;;;;;;;;;13.40;99.90;;;;;;5057420;28;19994;-38
2023/05/07 07:41:29;;;;;;;;;;;13.40;99.90;;;;;;5088303;28;19942;-38
2023/05/07 07:43:56;;;;;;;;;;;13.50;99.90;;;;;;5092277;28;20405;-38
2023/05/07 07:46:23;;;;;;;;;;;13.50;99.90;;;;;;5099619;28;19995;-39
2023/05/07 07:48:49;;;;;;;;;;;13.50;99.90;;;;;;5072694;28;20396;-39
2023/05/07 07:51:16;;;;;;;;;;;13.60;99.90;;;;;;5072155;28;20401;-38
2023/05/07 07:53:43;;;;;;;;;;;13.70;99.90;;;;;;5057059;28;19928;-39
2023/05/07 07:56:09;;;;;;;;;;;13.60;99.90;;;;;;5096967;28;20032;-39
2023/05/07 07:58:39;;;;;;;;;;;13.60;99.90;;;;;;5097662;28;19998;-38
2023/05/07 08:01:05;;;;;;;;;;;13.70;99.90;;;;;;5089768;28;19941;-37
2023/05/07 08:03:32;;;;;;;;;;;13.70;99.90;;;;;;5084052;28;20331;-38
2023/05/07 08:05:59;;;;;;;;;;;13.70;99.90;;;;;;5067400;28;20034;-38
2023/05/07 08:08:26;;;;;;;;;;;13.70;99.90;;;;;;5063442;28;19947;-38
2023/05/07 08:10:52;;;;;;;;;;;13.80;99.90;;;;;;5084253;28;19987;-39
2023/05/07 08:13:19;;;;;;;;;;;13.90;99.90;;;;;;5087945;28;19944;-38
2023/05/07 08:15:47;;;;;;;;;;;14.00;99.90;;;;;;5067494;28;19948;-38
2023/05/07 08:18:14;;;;;;;;;;;14.00;99.90;;;;;;5067864;28;19978;-38
2023/05/07 08:20:42;;;;;;;;;;;14.10;99.90;;;;;;5074127;28;19940;-38
2023/05/07 08:23:08;;;;;;;;;;;14.10;99.90;;;;;;5080699;28;19952;-38
2023/05/07 08:25:35;;;;;;;;;;;14.20;99.90;;;;;;5093747;28;20035;-38
2023/05/07 08:28:03;;;;;;;;;;;14.20;99.90;;;;;;5059097;28;19937;-38
2023/05/07 08:30:29;;;;;;;;;;;14.20;99.90;;;;;;5062828;28;19943;-38
2023/05/07 08:32:57;;;;;;;;;;;14.40;99.90;;;;;;5085617;28;20328;-38
2023/05/07 08:38:36;;;;;;;;;;;14.70;99.90;;;;;;5089593;28;19944;-38
2023/05/07 08:41:03;;;;;;;;;;;14.80;99.90;;;;;;5086617;28;19992;-39
2023/05/07 08:43:29;;;;;;;;;;;15.00;99.90;;;;;;5074160;28;19992;-38
2023/05/07 08:45:56;;;;;;;;;;;15.20;99.90;;;;;;5089740;28;19943;-38
2023/05/07 08:48:26;;;;;;;;;;;15.20;99.90;;;;;;5079536;28;19984;-38
2023/05/07 08:50:52;;;;;;;;;;;15.40;99.90;;;;;;5091649;28;19947;-38
2023/05/07 08:53:20;;;;;;;;;;;15.50;99.90;;;;;;5073295;28;20393;-38
2023/05/07 08:55:46;;;;;;;;;;;15.50;99.90;;;;;;5084004;28;19941;-38
2023/05/07 08:58:13;;;;;;;;;;;15.60;99.90;;;;;;5068708;28;19947;-38
2023/05/07 09:00:40;;;;;;;;;;;15.60;99.90;;;;;;5092955;28;19989;-38
2023/05/07 09:03:07;;;;;;;;;;;15.70;99.90;;;;;;5091051;28;19940;-39
2023/05/07 09:05:35;;;;;;;;;;;15.70;99.90;;;;;;5080439;28;19957;-37
2023/05/07 09:08:02;;;;;;;;;;;15.70;99.90;;;;;;5068538;28;19955;-38
2023/05/07 09:10:30;;;;;;;;;;;15.90;99.90;;;;;;5074579;28;20363;-38
2023/05/07 09:12:56;;;;;;;;;;;16.00;99.90;;;;;;5090127;28;20020;-38
2023/05/07 09:15:23;;;;;;;;;;;16.20;99.90;;;;;;5090370;28;21172;-38
2023/05/07 09:17:50;;;;;;;;;;;16.30;99.90;;;;;;5088933;28;20033;-38
2023/05/07 09:20:18;;;;;;;;;;;16.50;99.90;;;;;;5073173;28;20350;-38
2023/05/07 09:22:46;;;;;;;;;;;16.60;99.90;;;;;;5076423;28;19941;-39
2023/05/07 09:25:13;;;;;;;;;;;16.80;99.90;;;;;;5083853;28;19957;-38
2023/05/07 09:27:40;;;;;;;;;;;16.90;99.90;;;;;;5063850;28;20388;-38
2023/05/07 09:30:07;;;;;;;;;;;16.80;99.90;;;;;;5084397;28;20338;-38
2023/05/07 09:32:35;;;;;;;;;;;16.80;99.90;;;;;;5089933;28;20044;-38
2023/05/07 09:35:02;;;;;;;;;;;16.80;99.90;;;;;;5069710;28;19950;-38
2023/05/07 09:37:28;;;;;;;;;;;16.90;99.90;;;;;;5077711;28;20300;-38
2023/05/07 09:39:56;;;;;;;;;;;17.00;99.90;;;;;;5077692;28;19947;-38
2023/05/07 09:42:23;;;;;;;;;;;17.20;99.90;;;;;;5071638;28;19938;-38
2023/05/07 09:44:50;;;;;;;;;;;17.30;99.90;;;;;;5073138;28;19956;-38
2023/05/07 09:47:18;;;;;;;;;;;17.60;99.90;;;;;;5090079;28;20417;-38
2023/05/07 09:49:44;;;;;;;;;;;17.80;99.90;;;;;;5088705;28;19943;-38
2023/05/07 09:52:11;;;;;;;;;;;18.00;99.90;;;;;;5090912;28;19940;-39
2023/05/07 09:54:38;;;;;;;;;;;18.10;99.90;;;;;;5094257;28;19937;-38
2023/05/07 09:57:07;;;;;;;;;;;18.20;99.90;;;;;;5091592;28;19947;-38
2023/05/07 09:59:33;;;;;;;;;;;18.30;99.90;;;;;;5083775;28;19935;-38
2023/05/07 10:02:00;;;;;;;;;;;18.50;99.90;;;;;;5088037;28;19992;-38
2023/05/07 10:04:27;;;;;;;;;;;18.50;99.90;;;;;;5078542;28;19951;-38
2023/05/07 10:06:55;;;;;;;;;;;18.60;99.90;;;;;;5084881;28;20350;-38
2023/05/07 10:09:21;;;;;;;;;;;18.70;99.90;;;;;;5078983;28;20027;-38
2023/05/07 10:11:48;;;;;;;;;;;18.70;99.90;;;;;;5078126;28;19944;-38
2023/05/07 10:14:16;;;;;;;;;;;18.80;99.90;;;;;;5091159;28;19940;-38
2023/05/07 10:16:43;;;;;;;;;;;18.90;99.90;;;;;;5090436;28;19999;-38
2023/05/07 10:19:10;;;;;;;;;;;18.80;99.90;;;;;;5072079;28;20453;-38
2023/05/07 10:21:37;;;;;;;;;;;18.80;99.90;;;;;;5079763;28;20032;-38
2023/05/07 10:24:05;;;;;;;;;;;18.80;99.90;;;;;;5070543;28;19962;-38
2023/05/07 10:26:32;;;;;;;;;;;18.80;99.90;;;;;;5093433;28;19950;-38
2023/05/07 10:29:00;;;;;;;;;;;18.80;99.90;;;;;;5076100;28;19985;-38
2023/05/07 10:31:42;;;;;;;;;;;18.90;99.90;;;;;;5093639;28;20021;-37
2023/05/07 10:34:10;;;;;;;;;;;19.00;99.90;;;;;;5089506;28;19994;-38
2023/05/07 10:36:36;;;;;;;;;;;19.00;99.90;;;;;;5095330;28;20303;-38
2023/05/07 10:39:03;;;;;;;;;;;18.90;99.90;;;;;;5094690;28;19941;-38
2023/05/07 10:41:30;;;;;;;;;;;18.80;99.90;;;;;;5067552;28;19964;-38
2023/05/07 10:43:57;;;;;;;;;;;18.90;99.90;;;;;;5071235;28;19945;-39
2023/05/07 10:46:23;;;;;;;;;;;19.00;99.90;;;;;;5073769;28;19938;-38
2023/05/07 10:49:17;;;;;;;;;;;19.10;99.90;;;;;;5074659;28;19939;-38
2023/05/07 10:51:47;;;;;;;;;;;19.20;99.90;;;;;;5040119;28;19945;-38
2023/05/07 10:54:20;;;;;;;;;;;19.30;99.90;;;;;;5083285;28;19976;-39
2023/05/07 10:56:47;;;;;;;;;;;19.40;99.90;;;;;;5063338;28;19954;-38
2023/05/07 10:59:33;;;;;;;;;;;19.50;99.90;;;;;;5064406;28;19966;-37
2023/05/07 11:02:02;;;;;;;;;;;19.60;99.90;;;;;;5088190;28;19945;-38
2023/05/07 11:04:31;;;;;;;;;;;19.80;99.90;;;;;;5056792;28;19959;-38
2023/05/07 11:07:16;;;;;;;;;;;19.90;99.90;;;;;;5094458;28;19950;-38
2023/05/07 11:09:58;;;;;;;;;;;20.00;99.90;;;;;;5093938;28;20272;-38
2023/05/07 11:12:43;;;;;;;;;;;20.00;99.90;;;;;;5095250;28;19945;-38
2023/05/07 11:15:10;;;;;;;;;;;20.10;99.90;;;;;;5073849;28;19942;-38
2023/05/07 11:17:52;;;;;;;;;;;20.20;99.90;;;;;;5083335;28;19966;-38
2023/05/07 11:20:19;;;;;;;;;;;20.30;99.90;;;;;;5092824;28;19944;-37
2023/05/07 11:22:46;;;;;;;;;;;20.40;99.90;;;;;;5074286;28;19955;-38
2023/05/07 11:25:15;;;;;;;;;;;20.50;99.90;;;;;;5077784;28;20428;-38
2023/05/07 11:27:41;;;;;;;;;;;20.60;99.90;;;;;;5091481;28;20025;-37
2023/05/07 11:30:08;;;;;;;;;;;20.60;99.90;;;;;;5071300;28;20193;-38
2023/05/07 11:32:35;;;;;;;;;;;20.60;99.90;;;;;;5059149;28;19940;-38
2023/05/07 11:35:02;;;;;;;;;;;20.60;99.90;;;;;;5077478;28;19991;-38
2023/05/07 11:37:29;;;;;;;;;;;20.70;99.90;;;;;;5074050;28;19990;-38
2023/05/07 11:40:03;;;;;;;;;;;20.80;99.90;;;;;;5069215;28;19993;-39
2023/05/07 11:42:32;;;;;;;;;;;21.00;99.90;;;;;;5074504;28;19940;-38
2023/05/07 11:44:58;;;;;;;;;;;21.10;99.90;;;;;;5064652;28;19964;-38
2023/05/07 11:47:26;;;;;;;;;;;21.10;99.90;;;;;;5078975;28;19939;-38
2023/05/07 11:49:53;;;;;;;;;;;21.20;99.90;;;;;;5077443;28;19976;-38
2023/05/07 11:52:20;;;;;;;;;;;21.30;99.90;;;;;;5073820;28;20034;-38
2023/05/07 11:54:49;;;;;;;;;;;21.50;99.90;;;;;;5064854;28;19993;-38
2023/05/07 11:57:16;;;;;;;;;;;21.60;99.90;;;;;;5084709;28;20039;-38
2023/05/07 11:59:45;;;;;;;;;;;21.70;99.90;;;;;;5075535;28;19936;-38
2023/05/07 12:02:11;;;;;;;;;;;21.80;99.90;;;;;;5074236;28;19955;-38
2023/05/07 12:04:38;;;;;;;;;;;22.00;99.90;;;;;;5091486;28;19963;-39
2023/05/07 12:07:05;;;;;;;;;;;22.10;99.90;;;;;;5075131;28;19947;-38
2023/05/07 12:09:33;;;;;;;;;;;22.20;99.90;;;;;;5074998;28;19987;-38
2023/05/07 12:12:03;;;;;;;;;;;22.10;99.90;;;;;;5073887;28;19938;-38
2023/05/07 12:14:30;;;;;;;;;;;22.20;99.90;;;;;;5089213;28;19948;-38
2023/05/07 12:16:58;;;;;;;;;;;22.30;99.90;;;;;;5072866;28;19965;-38
2023/05/07 12:19:25;;;;;;;;;;;22.40;99.90;;;;;;5092704;28;19941;-38
2023/05/07 12:21:51;;;;;;;;;;;22.40;99.90;;;;;;5091653;28;19939;-39
2023/05/07 12:24:18;;;;;;;;;;;22.50;99.90;;;;;;5072279;28;19986;-37
2023/05/07 12:26:44;;;;;;;;;;;22.60;99.30;;;;;;5090689;28;19958;-38
2023/05/07 12:29:11;;;;;;;;;;;22.50;99.90;;;;;;5092949;28;20016;-38
2023/05/07 12:31:40;;;;;;;;;;;22.50;99.90;;;;;;5092458;28;20415;-38
2023/05/07 12:34:09;;;;;;;;;;;22.50;99.90;;;;;;5073622;28;20004;-38
2023/05/07 12:36:39;;;;;;;;;;;22.50;99.70;;;;;;5066052;28;19943;-38
2023/05/07 12:39:06;;;;;;;;;;;22.50;99.70;;;;;;5087736;28;20401;-39
2023/05/07 12:41:35;;;;;;;;;;;22.60;99.90;;;;;;5066850;28;19940;-39
2023/05/07 12:44:02;;;;;;;;;;;22.70;99.90;;;;;;5088253;28;19938;-37
2023/05/07 12:46:28;;;;;;;;;;;22.70;99.90;;;;;;5083767;28;19959;-38
2023/05/07 12:48:55;;;;;;;;;;;22.70;99.90;;;;;;5083602;28;19952;-38
2023/05/07 12:51:23;;;;;;;;;;;22.60;99.90;;;;;;5074034;28;20391;-38
2023/05/07 12:53:50;;;;;;;;;;;22.70;99.10;;;;;;5075802;28;19996;-38
2023/05/07 12:56:16;;;;;;;;;;;22.70;99.60;;;;;;5090657;28;19939;-38
2023/05/07 12:58:43;;;;;;;;;;;22.80;98.20;;;;;;5090743;28;19944;-37
2023/05/07 13:01:15;;;;;;;;;;;22.90;99.60;;;;;;5072740;28;19991;-37
2023/05/07 13:03:41;;;;;;;;;;;23.00;98.50;;;;;;5070359;28;19950;-37
2023/05/07 13:06:09;;;;;;;;;;;23.20;98.20;;;;;;5076228;28;19960;-38
2023/05/07 13:08:37;;;;;;;;;;;23.40;96.40;;;;;;5089748;28;20285;-37
2023/05/07 13:11:04;;;;;;;;;;;23.40;95.70;;;;;;5073900;28;19940;-37
2023/05/07 13:13:31;;;;;;;;;;;23.50;98.10;;;;;;5084616;28;19974;-39
2023/05/07 13:15:58;;;;;;;;;;;23.60;97.80;;;;;;5074938;28;20000;-38
2023/05/07 13:18:25;;;;;;;;;;;23.60;96.00;;;;;;5083900;28;19936;-38
2023/05/07 13:20:52;;;;;;;;;;;23.60;97.10;;;;;;5094771;28;19947;-38
2023/05/07 13:23:18;;;;;;;;;;;23.60;95.70;;;;;;5094125;28;19947;-38
2023/05/07 13:25:46;;;;;;;;;;;23.60;96.40;;;;;;5078151;28;19997;-38
2023/05/07 13:28:13;;;;;;;;;;;23.80;96.60;;;;;;5069471;28;19990;-38
2023/05/07 13:30:40;;;;;;;;;;;23.80;96.60;;;;;;5089829;28;19951;-38
2023/05/07 13:33:07;;;;;;;;;;;23.80;95.40;;;;;;5077447;28;19942;-38
2023/05/07 13:35:33;;;;;;;;;;;23.80;95.50;;;;;;5082473;28;19982;-38
2023/05/07 13:38:00;;;;;;;;;;;23.90;95.20;;;;;;5089853;28;19946;-38
2023/05/07 13:40:27;;;;;;;;;;;23.80;96.60;;;;;;5075759;28;20352;-38
2023/05/07 13:42:58;;;;;;;;;;;23.80;95.50;;;;;;5085963;28;20439;-38
2023/05/07 13:45:25;;;;;;;;;;;23.60;95.40;;;;;;5085407;28;20045;-38
2023/05/07 13:47:52;;;;;;;;;;;23.50;95.40;;;;;;5072947;28;20295;-38
2023/05/07 13:50:18;;;;;;;;;;;23.50;95.70;;;;;;5101788;28;19941;-38
2023/05/07 13:52:50;;;;;;;;;;;23.30;96.30;;;;;;5092946;28;20499;-38
2023/05/07 13:55:17;;;;;;;;;;;23.10;96.30;;;;;;5094022;28;19946;-38
2023/05/07 13:57:43;;;;;;;;;;;23.10;95.60;;;;;;5087560;28;19940;-38
2023/05/07 14:00:12;;;;;;;;;;;22.90;95.50;;;;;;5078585;28;19945;-38
2023/05/07 14:02:39;;;;;;;;;;;22.80;96.60;;;;;;5076559;28;19973;-37
2023/05/07 14:05:06;;;;;;;;;;;22.70;96.00;;;;;;5074313;28;20345;-38
2023/05/07 14:07:32;;;;;;;;;;;22.70;98.00;;;;;;5094690;28;19998;-38
2023/05/07 14:09:59;;;;;;;;;;;22.60;97.00;;;;;;5091416;28;19947;-37
2023/05/07 14:12:26;;;;;;;;;;;22.60;97.30;;;;;;5089620;28;19940;-38
2023/05/07 14:14:52;;;;;;;;;;;22.60;96.00;;;;;;5092948;28;20420;-38
2023/05/07 14:17:22;;;;;;;;;;;22.50;96.90;;;;;;5073130;28;19967;-37
2023/05/07 14:19:49;;;;;;;;;;;22.50;97.50;;;;;;5069139;28;19939;-37